Time;durP1;ratioP1;P1;durP2;ratioP2;P2;SDS_P1;SDS_P2;PMS_P1;PMS_P2;Temp;Humidity;BMP_temperature;BMP_pressure;BME280_temperature;BME280_humidity;BME280_pressure;Samples;Min_cycle;Max_cycle;Signal;HPM_P1;HPM_P2
2022/09/16 00:01:25;;;;;;;11.95;6.93;;;18.90;80.50;;;;;;5135342;27;20135;-15
2022/09/16 00:03:55;;;;;;;10.50;6.20;;;18.90;80.40;;;;;;5135003;27;20035;-16
2022/09/16 00:06:26;;;;;;;11.90;7.05;;;18.90;80.30;;;;;;5135228;27;20027;-16
2022/09/16 00:08:55;;;;;;;14.43;8.35;;;18.90;80.20;;;;;;5134863;27;20103;-15
2022/09/16 00:11:21;;;;;;;10.05;7.45;;;18.90;80.20;;;;;;5134956;27;20019;-15
2022/09/16 00:13:48;;;;;;;10.80;6.78;;;18.90;80.20;;;;;;5134806;27;20034;-15
2022/09/16 00:16:23;;;;;;;11.98;6.68;;;18.90;80.30;;;;;;5116473;27;20486;-15
2022/09/16 00:18:57;;;;;;;11.77;7.00;;;18.90;80.30;;;;;;5134486;27;20432;-15
2022/09/16 00:21:24;;;;;;;10.15;6.43;;;18.80;80.30;;;;;;5134726;27;20027;-15
2022/09/16 00:23:50;;;;;;;10.23;5.72;;;18.80;80.30;;;;;;5134562;27;20036;-15
2022/09/16 00:26:17;;;;;;;13.10;7.30;;;18.80;80.30;;;;;;5134895;27;20068;-15
2022/09/16 00:28:43;;;;;;;10.60;6.65;;;18.90;80.40;;;;;;5134940;27;20028;-15
2022/09/16 00:31:09;;;;;;;10.00;6.50;;;18.80;80.40;;;;;;5133951;27;20023;-15
2022/09/16 00:33:35;;;;;;;11.43;7.20;;;18.80;80.40;;;;;;5116130;27;20023;-15
2022/09/16 00:36:05;;;;;;;16.38;9.35;;;18.80;80.40;;;;;;5116120;27;20031;-15
2022/09/16 00:38:31;;;;;;;11.10;8.02;;;18.80;80.60;;;;;;5134398;27;20066;-14
2022/09/16 00:40:58;;;;;;;9.93;6.45;;;18.80;80.50;;;;;;5134057;27;20035;-16
2022/09/16 00:43:24;;;;;;;11.23;7.20;;;18.70;80.70;;;;;;5134438;27;20019;-14
2022/09/16 00:46:00;;;;;;;9.77;6.57;;;18.70;80.70;;;;;;5134535;27;20027;-15
2022/09/16 00:48:29;;;;;;;10.60;6.25;;;18.60;80.80;;;;;;5134208;27;20050;-15
2022/09/16 00:51:04;;;;;;;11.50;7.25;;;18.60;80.80;;;;;;5133991;27;20069;-15
2022/09/16 00:53:44;;;;;;;11.40;7.80;;;18.60;80.80;;;;;;5134525;27;20103;-15
2022/09/16 00:56:13;;;;;;;13.57;8.10;;;18.60;81.00;;;;;;5134238;27;20058;-15
2022/09/16 00:58:49;;;;;;;12.68;7.22;;;18.70;81.20;;;;;;5134558;27;20023;-15
2022/09/16 01:01:15;;;;;;;11.05;7.53;;;18.60;81.20;;;;;;5134344;28;20432;-16
2022/09/16 01:03:47;;;;;;;11.63;8.32;;;18.60;81.10;;;;;;5133971;28;20478;-15
2022/09/16 01:06:15;;;;;;;13.38;8.63;;;18.60;81.10;;;;;;5134456;28;20046;-15
2022/09/16 01:08:42;;;;;;;12.60;8.20;;;18.50;81.30;;;;;;5134192;28;20101;-16
2022/09/16 01:11:08;;;;;;;15.50;9.55;;;18.50;81.30;;;;;;5133975;28;20083;-16
2022/09/16 01:13:35;;;;;;;11.75;8.82;;;18.40;81.30;;;;;;5134337;28;20423;-15
2022/09/16 01:16:14;;;;;;;10.55;7.53;;;18.40;81.40;;;;;;5134352;28;20546;-14
2022/09/16 01:18:51;;;;;;;11.05;7.38;;;18.30;81.60;;;;;;5133842;28;20027;-15
2022/09/16 01:21:30;;;;;;;9.45;6.78;;;18.30;81.60;;;;;;5134263;28;20394;-15
2022/09/16 01:24:23;;;;;;;14.55;7.80;;;18.20;81.70;;;;;;5133944;28;20091;-15
2022/09/16 01:27:07;;;;;;;9.93;6.82;;;18.20;81.70;;;;;;5115398;28;20023;-15
2022/09/16 01:30:11;;;;;;;12.77;6.88;;;18.20;81.60;;;;;;5133826;28;20034;-15
2022/09/16 01:32:51;;;;;;;13.23;7.67;;;18.20;81.60;;;;;;5133949;28;20474;-15
2022/09/16 01:35:54;;;;;;;12.70;7.00;;;18.20;81.60;;;;;;5133930;28;20277;-15
2022/09/16 01:38:45;;;;;;;11.98;8.02;;;18.20;81.50;;;;;;5133879;28;20023;-16
2022/09/16 01:41:11;;;;;;;14.05;8.93;;;18.10;81.50;;;;;;5133769;27;20054;-16
2022/09/16 01:44:01;;;;;;;12.05;8.02;;;18.10;81.60;;;;;;5137636;27;20467;-15
2022/09/16 01:46:46;;;;;;;13.57;8.98;;;18.00;81.80;;;;;;5137743;27;20524;-15
2022/09/16 01:49:27;;;;;;;12.32;7.60;;;18.00;82.10;;;;;;5138188;27;20023;-15
2022/09/16 01:52:21;;;;;;;11.35;6.97;;;18.00;82.20;;;;;;5119218;27;20066;-15
2022/09/16 01:55:13;;;;;;;9.77;6.38;;;18.00;82.30;;;;;;5137602;27;20027;-16
2022/09/16 01:58:03;;;;;;;11.95;6.18;;;18.00;82.40;;;;;;5137432;27;20033;-15
2022/09/16 02:00:31;;;;;;;10.27;6.35;;;18.00;82.30;;;;;;5137653;27;20500;-16
2022/09/16 02:03:11;;;;;;;12.57;7.50;;;18.00;82.30;;;;;;5137141;27;20447;-15
2022/09/16 02:05:48;;;;;;;14.25;8.70;;;18.00;82.30;;;;;;5137321;27;20030;-15
2022/09/16 02:08:52;;;;;;;15.38;7.65;;;18.00;82.40;;;;;;5137553;27;20062;-14
2022/09/16 02:11:19;;;;;;;9.93;5.53;;;18.00;82.50;;;;;;5137622;27;20027;-16
2022/09/16 02:13:55;;;;;;;12.68;6.10;;;18.00;82.70;;;;;;5137612;27;20034;-15
2022/09/16 02:16:34;;;;;;;12.20;5.60;;;18.00;82.70;;;;;;5137186;27;20019;-16
2022/09/16 02:19:25;;;;;;;9.93;5.75;;;18.10;82.50;;;;;;5136764;27;20427;-15
2022/09/16 02:21:54;;;;;;;8.38;5.20;;;18.10;82.60;;;;;;5121919;27;20031;-16
2022/09/16 02:24:23;;;;;;;10.07;5.32;;;18.10;82.80;;;;;;5137220;27;20102;-15
2022/09/16 02:26:59;;;;;;;11.35;6.22;;;18.10;82.70;;;;;;5136605;27;20363;-15
2022/09/16 02:29:33;;;;;;;11.98;6.03;;;18.20;82.60;;;;;;5136894;27;20390;-16
2022/09/16 02:32:02;;;;;;;14.05;6.63;;;18.20;82.40;;;;;;5136773;27;20020;-15
2022/09/16 02:34:49;;;;;;;12.15;5.90;;;18.20;82.40;;;;;;5136761;27;20025;-16
2022/09/16 02:37:30;;;;;;;14.10;7.80;;;18.20;82.50;;;;;;5136691;27;20023;-15
2022/09/16 02:40:03;;;;;;;13.80;5.85;;;18.20;82.40;;;;;;5136880;27;20112;-15
2022/09/16 02:42:30;;;;;;;9.45;5.70;;;18.20;82.60;;;;;;5136982;27;20043;-16
2022/09/16 02:44:58;;;;;;;9.25;5.53;;;18.20;82.50;;;;;;5136473;27;20019;-16
2022/09/16 02:47:49;;;;;;;17.15;8.55;;;18.20;82.40;;;;;;5136454;27;20107;-15
2022/09/16 02:50:28;;;;;;;9.98;5.63;;;18.20;82.50;;;;;;5136769;27;20394;-15
2022/09/16 02:53:36;;;;;;;9.73;6.10;;;18.20;82.50;;;;;;5135909;27;20452;-17
2022/09/16 02:56:13;;;;;;;14.57;5.75;;;18.20;82.50;;;;;;5136701;27;20074;-16
2022/09/16 02:58:40;;;;;;;8.68;5.40;;;18.20;82.30;;;;;;5136346;27;20051;-15
2022/09/16 03:01:06;;;;;;;8.55;5.68;;;18.20;82.40;;;;;;5136258;27;20027;-16
2022/09/16 03:03:32;;;;;;;11.65;6.25;;;18.20;82.40;;;;;;5136439;27;20031;-17
2022/09/16 03:06:39;;;;;;;14.23;7.88;;;18.20;82.40;;;;;;5136362;27;20389;-16
2022/09/16 03:09:09;;;;;;;13.55;7.18;;;18.10;82.50;;;;;;5052656;28;20025;-15
2022/09/16 03:11:46;;;;;;;6.90;5.40;;;18.10;82.60;;;;;;5053387;28;20045;-15
2022/09/16 03:14:26;;;;;;;12.27;5.90;;;18.00;82.70;;;;;;5052848;28;20029;-15
2022/09/16 03:17:18;;;;;;;10.40;5.78;;;18.00;82.80;;;;;;5052514;28;20032;-15
2022/09/16 03:19:53;;;;;;;8.55;5.18;;;18.00;82.80;;;;;;5052575;28;20087;-15
2022/09/16 03:22:43;;;;;;;12.55;6.05;;;18.00;82.70;;;;;;5052643;28;20025;-15
2022/09/16 03:25:23;;;;;;;9.02;6.00;;;17.90;82.70;;;;;;5052409;28;20039;-15
2022/09/16 03:28:22;;;;;;;11.05;5.47;;;17.90;82.90;;;;;;5052566;28;20029;-15
2022/09/16 03:31:06;;;;;;;9.52;6.45;;;17.90;82.90;;;;;;5048041;28;20435;-16
2022/09/16 03:33:59;;;;;;;10.15;6.35;;;17.90;82.90;;;;;;5052625;28;20105;-15
2022/09/16 03:36:29;;;;;;;10.27;6.53;;;17.90;82.90;;;;;;5012668;28;20050;-16
2022/09/16 03:38:58;;;;;;;12.27;6.78;;;17.90;83.00;;;;;;5012594;28;20042;-14
2022/09/16 03:41:26;;;;;;;12.30;6.70;;;18.00;83.00;;;;;;5012951;28;20057;-17
2022/09/16 03:43:54;;;;;;;10.75;6.20;;;18.10;83.00;;;;;;5046063;28;20112;-16
2022/09/16 03:46:21;;;;;;;9.57;5.60;;;18.20;82.90;;;;;;5051864;28;20076;-15
2022/09/16 03:48:47;;;;;;;8.93;6.18;;;18.20;82.90;;;;;;5052112;28;20025;-15
2022/09/16 03:51:14;;;;;;;10.73;5.82;;;18.30;82.90;;;;;;5052136;28;20021;-15
2022/09/16 03:53:40;;;;;;;9.68;6.45;;;18.40;82.70;;;;;;5052043;28;20063;-15
2022/09/16 03:56:07;;;;;;;13.00;6.68;;;18.40;82.70;;;;;;5052016;28;20056;-14
2022/09/16 03:58:33;;;;;;;11.18;6.20;;;18.50;82.90;;;;;;5052152;28;20043;-16
2022/09/16 04:00:59;;;;;;;10.45;6.25;;;18.50;82.80;;;;;;5051736;28;20488;-16
2022/09/16 04:03:25;;;;;;;11.13;7.07;;;18.60;82.50;;;;;;5051760;28;20035;-16
2022/09/16 04:05:55;;;;;;;8.23;5.47;;;18.60;83.10;;;;;;5051043;28;20029;-15
2022/09/16 04:08:22;;;;;;;11.23;6.43;;;18.70;82.50;;;;;;5051953;28;20542;-16
2022/09/16 04:10:56;;;;;;;15.82;8.40;;;18.80;82.50;;;;;;5051605;28;20455;-16
2022/09/16 04:13:23;;;;;;;11.43;5.70;;;18.80;82.30;;;;;;5095358;27;20030;-16
2022/09/16 04:15:49;;;;;;;13.93;7.65;;;18.90;82.20;;;;;;5135097;27;20026;-15
2022/09/16 04:18:15;;;;;;;10.90;6.05;;;18.90;82.10;;;;;;5134992;27;20051;-16
2022/09/16 04:20:41;;;;;;;9.60;5.30;;;19.00;82.10;;;;;;5134945;27;20049;-15
2022/09/16 04:23:08;;;;;;;8.52;5.00;;;19.00;82.00;;;;;;5134674;27;20481;-15
2022/09/16 04:25:34;;;;;;;8.07;5.47;;;19.10;81.90;;;;;;5134896;27;20023;-15
2022/09/16 04:28:00;;;;;;;10.05;5.07;;;19.10;81.80;;;;;;5116291;27;20091;-14
2022/09/16 04:30:26;;;;;;;13.80;6.15;;;19.20;81.70;;;;;;5134788;27;20051;-15
2022/09/16 04:32:54;;;;;;;9.25;5.03;;;19.20;81.70;;;;;;5134198;27;20020;-17
2022/09/16 04:35:20;;;;;;;12.32;6.78;;;19.30;81.60;;;;;;5134788;27;20031;-16
2022/09/16 04:37:46;;;;;;;14.05;6.18;;;19.30;81.60;;;;;;5134769;27;20076;-16
2022/09/16 04:40:12;;;;;;;10.15;5.47;;;19.30;81.40;;;;;;5134791;27;20046;-15
2022/09/16 04:42:38;;;;;;;9.07;5.00;;;19.40;81.40;;;;;;5134399;27;20023;-16
2022/09/16 04:45:05;;;;;;;8.18;5.32;;;19.40;81.30;;;;;;5134157;27;20027;-16
2022/09/16 04:47:31;;;;;;;8.15;4.78;;;19.40;81.30;;;;;;5133957;27;20054;-16
2022/09/16 04:49:57;;;;;;;8.60;4.82;;;19.40;81.30;;;;;;5134264;27;20016;-15
2022/09/16 04:52:23;;;;;;;11.07;5.07;;;19.40;81.30;;;;;;5134221;27;20139;-16
2022/09/16 04:54:49;;;;;;;9.93;5.35;;;19.40;81.30;;;;;;5134118;27;20039;-15
2022/09/16 04:57:15;;;;;;;12.23;6.18;;;19.40;81.20;;;;;;5134182;27;20027;-16
2022/09/16 04:59:41;;;;;;;8.93;5.47;;;19.40;81.30;;;;;;5134061;27;20030;-17
2022/09/16 05:02:07;;;;;;;12.15;6.35;;;19.40;81.30;;;;;;5134143;27;20023;-15
2022/09/16 05:04:33;;;;;;;12.30;6.57;;;19.40;81.30;;;;;;5134035;28;20424;-15
2022/09/16 05:06:59;;;;;;;10.73;6.05;;;19.40;81.30;;;;;;5134227;28;20031;-15
2022/09/16 05:09:25;;;;;;;7.50;5.50;;;19.40;81.40;;;;;;5134101;28;20023;-15
2022/09/16 05:11:51;;;;;;;10.85;6.43;;;19.30;81.40;;;;;;5134437;28;20512;-15
2022/09/16 05:14:17;;;;;;;10.57;6.15;;;19.30;81.40;;;;;;5134047;28;20028;-15
2022/09/16 05:16:45;;;;;;;10.45;5.55;;;19.40;81.40;;;;;;5136945;27;20038;-14
2022/09/16 05:19:12;;;;;;;12.80;6.13;;;19.40;81.40;;;;;;5137935;27;20023;-15
2022/09/16 05:21:39;;;;;;;13.93;7.28;;;19.40;81.30;;;;;;5138216;27;20144;-14
2022/09/16 05:24:09;;;;;;;12.23;6.22;;;19.40;81.30;;;;;;5138490;27;20106;-15
2022/09/16 05:26:38;;;;;;;14.52;7.78;;;19.40;81.30;;;;;;5138370;27;20106;-15
2022/09/16 05:29:07;;;;;;;13.13;6.80;;;19.40;81.30;;;;;;5137833;27;20111;-15
2022/09/16 05:31:36;;;;;;;11.20;6.00;;;19.40;81.30;;;;;;5138225;27;20023;-17
2022/09/16 05:34:06;;;;;;;8.50;5.90;;;19.40;81.30;;;;;;5137927;27;20054;-15
2022/09/16 05:36:36;;;;;;;11.07;5.63;;;19.40;81.20;;;;;;5137958;27;20560;-15
2022/09/16 05:39:02;;;;;;;6.90;5.05;;;19.50;81.20;;;;;;5137917;27;20504;-15
2022/09/16 05:41:28;;;;;;;13.82;6.30;;;19.50;81.10;;;;;;5138249;27;20034;-15
2022/09/16 05:43:59;;;;;;;9.45;6.18;;;19.60;81.10;;;;;;5138187;27;20031;-15
2022/09/16 05:46:26;;;;;;;11.40;7.10;;;19.70;80.90;;;;;;5137570;27;20137;-17
2022/09/16 05:48:52;;;;;;;8.95;5.90;;;19.70;80.90;;;;;;5137357;27;20377;-15
2022/09/16 05:51:21;;;;;;;11.13;5.72;;;19.90;80.80;;;;;;5119295;27;20024;-15
2022/09/16 05:53:49;;;;;;;11.68;7.18;;;19.90;80.60;;;;;;5137753;27;20011;-16
2022/09/16 05:56:17;;;;;;;9.57;5.90;;;19.90;80.60;;;;;;5119184;27;20027;-15
2022/09/16 05:58:48;;;;;;;10.45;5.47;;;20.00;80.50;;;;;;5137800;27;20023;-16
2022/09/16 06:01:19;;;;;;;14.77;10.18;;;20.00;80.30;;;;;;5119777;27;20110;-15
2022/09/16 06:03:47;;;;;;;18.77;10.45;;;20.10;80.20;;;;;;5137576;27;20019;-16
2022/09/16 06:06:23;;;;;;;24.90;18.42;;;20.20;80.10;;;;;;5137648;27;20019;-16
2022/09/16 06:08:50;;;;;;;16.30;9.45;;;20.30;79.90;;;;;;5137258;27;20102;-16
2022/09/16 06:11:16;;;;;;;13.40;8.57;;;20.40;79.90;;;;;;5137512;27;20390;-16
2022/09/16 06:13:42;;;;;;;10.40;6.22;;;20.50;80.00;;;;;;5137194;27;20019;-16
2022/09/16 06:16:10;;;;;;;10.82;6.03;;;20.70;79.80;;;;;;5137468;27;20027;-15
2022/09/16 06:18:37;;;;;;;13.27;6.20;;;20.90;79.40;;;;;;5137002;27;20027;-15
2022/09/16 06:21:10;;;;;;;16.45;6.25;;;21.00;79.20;;;;;;5118409;27;20019;-15
2022/09/16 06:23:38;;;;;;;10.50;5.20;;;21.20;79.00;;;;;;5137060;27;20031;-15
2022/09/16 06:26:07;;;;;;;10.20;5.13;;;21.40;78.60;;;;;;5137271;27;20148;-15
2022/09/16 06:28:33;;;;;;;11.93;4.60;;;21.60;78.30;;;;;;5136408;27;20493;-14
2022/09/16 06:31:23;;;;;;;8.98;4.60;;;21.80;77.60;;;;;;5136762;27;20019;-15
2022/09/16 06:33:50;;;;;;;11.88;5.18;;;22.00;77.50;;;;;;5136979;27;20049;-15
2022/09/16 06:36:19;;;;;;;11.10;4.93;;;22.10;76.80;;;;;;5137058;27;20027;-15
2022/09/16 06:38:46;;;;;;;10.18;5.30;;;22.20;76.40;;;;;;5136728;27;20020;-15
2022/09/16 06:41:14;;;;;;;8.13;4.50;;;22.30;76.30;;;;;;5136722;27;20039;-17
2022/09/16 06:43:41;;;;;;;8.02;4.88;;;22.40;76.10;;;;;;5136604;27;20027;-14
2022/09/16 06:46:15;;;;;;;14.90;5.05;;;22.40;76.10;;;;;;5136608;27;20031;-15
2022/09/16 06:48:42;;;;;;;8.82;5.25;;;22.60;75.80;;;;;;5136477;27;20470;-15
2022/09/16 06:51:17;;;;;;;9.98;5.10;;;22.70;75.60;;;;;;5136363;27;20023;-15
2022/09/16 06:53:44;;;;;;;9.68;5.13;;;22.80;75.10;;;;;;5136823;27;20050;-15
2022/09/16 06:56:13;;;;;;;12.63;5.88;;;22.90;74.80;;;;;;5118490;27;20057;-15
2022/09/16 06:58:41;;;;;;;11.77;5.05;;;23.00;74.70;;;;;;5136517;27;20114;-15
2022/09/16 07:01:09;;;;;;;11.32;5.22;;;23.10;74.60;;;;;;5135978;27;20027;-16
2022/09/16 07:03:41;;;;;;;11.05;4.90;;;23.30;74.30;;;;;;5136101;27;20031;-15
2022/09/16 07:06:09;;;;;;;10.05;4.65;;;23.40;73.90;;;;;;5136510;27;20019;-16
2022/09/16 07:08:37;;;;;;;12.20;6.30;;;23.40;73.70;;;;;;5136139;27;20602;-16
2022/09/16 07:11:09;;;;;;;9.32;4.75;;;23.60;73.60;;;;;;5135857;27;20019;-15
2022/09/16 07:13:35;;;;;;;9.13;4.55;;;23.80;73.10;;;;;;5136512;27;20042;-15
2022/09/16 07:16:03;;;;;;;12.60;7.28;;;24.00;72.70;;;;;;5136262;27;20019;-16
2022/09/16 07:18:30;;;;;;;17.17;10.20;;;24.30;71.80;;;;;;5135911;27;20031;-16
2022/09/16 07:21:14;;;;;;;17.17;7.40;;;24.40;71.20;;;;;;5135700;27;20027;-15
2022/09/16 07:23:42;;;;;;;10.85;5.57;;;24.50;70.90;;;;;;5136355;27;20387;-15
2022/09/16 07:26:14;;;;;;;11.63;5.43;;;24.50;70.90;;;;;;5135760;27;20084;-14
2022/09/16 07:28:42;;;;;;;11.98;5.03;;;24.70;70.30;;;;;;5135956;27;20474;-15
2022/09/16 07:31:17;;;;;;;6.72;4.18;;;24.90;69.90;;;;;;5135639;27;20028;-14
2022/09/16 07:33:46;;;;;;;11.77;4.93;;;25.10;70.00;;;;;;5135904;27;20027;-15
2022/09/16 07:36:15;;;;;;;10.65;4.10;;;25.40;68.00;;;;;;5135619;27;20034;-14
2022/09/16 07:38:42;;;;;;;9.48;4.78;;;25.40;67.30;;;;;;5135328;27;20016;-14
2022/09/16 07:41:14;;;;;;;10.10;4.25;;;25.30;66.30;;;;;;5134672;27;20026;-13
2022/09/16 07:43:41;;;;;;;8.63;3.47;;;25.10;67.30;;;;;;5135844;27;20023;-14
2022/09/16 07:46:09;;;;;;;7.20;3.15;;;25.20;66.10;;;;;;5135380;27;20171;-14
2022/09/16 07:48:36;;;;;;;9.48;2.95;;;25.30;66.10;;;;;;5135338;27;20485;-14
2022/09/16 07:51:05;;;;;;;7.47;2.97;;;25.50;64.70;;;;;;5135185;27;20011;-14
2022/09/16 07:53:32;;;;;;;7.82;2.78;;;25.70;63.70;;;;;;5135742;27;20084;-14
2022/09/16 07:56:24;;;;;;;7.72;3.10;;;25.80;60.30;;;;;;5135437;27;20015;-13
2022/09/16 07:58:52;;;;;;;6.43;2.90;;;25.90;61.00;;;;;;5131616;27;20505;-16
2022/09/16 08:01:18;;;;;;;10.60;3.22;;;26.10;62.50;;;;;;5135011;27;20046;-16
2022/09/16 08:03:46;;;;;;;7.68;2.90;;;26.30;60.00;;;;;;5135276;27;20050;-15
2022/09/16 08:06:20;;;;;;;6.88;2.90;;;26.40;59.60;;;;;;5135314;27;20019;-16
2022/09/16 08:08:46;;;;;;;7.63;2.80;;;26.70;58.50;;;;;;5134959;27;20038;-15
2022/09/16 08:11:14;;;;;;;8.38;2.88;;;26.80;59.10;;;;;;5135015;27;20027;-15
2022/09/16 08:13:41;;;;;;;10.23;2.80;;;27.10;59.30;;;;;;5134877;27;20027;-15
2022/09/16 08:16:15;;;;;;;6.35;2.80;;;27.10;57.10;;;;;;5135114;27;20025;-15
2022/09/16 08:18:42;;;;;;;6.82;2.60;;;27.10;57.50;;;;;;5134883;27;20023;-14
2022/09/16 08:21:19;;;;;;;7.75;2.78;;;27.10;58.80;;;;;;5134609;27;20031;-14
2022/09/16 08:23:45;;;;;;;7.43;2.58;;;27.00;59.00;;;;;;5134982;27;20072;-13
2022/09/16 08:26:13;;;;;;;7.93;2.42;;;27.00;56.90;;;;;;5134643;27;20031;-13
2022/09/16 08:28:40;;;;;;;6.28;2.50;;;27.00;58.40;;;;;;5134816;27;20062;-14
2022/09/16 08:31:07;;;;;;;9.35;2.70;;;27.30;57.50;;;;;;5134657;27;20027;-14
2022/09/16 08:33:33;;;;;;;7.18;2.40;;;27.20;57.80;;;;;;5134595;27;20026;-14
2022/09/16 08:36:05;;;;;;;5.30;2.20;;;27.30;57.70;;;;;;5134814;27;20023;-16
2022/09/16 08:38:32;;;;;;;6.65;2.05;;;27.40;56.80;;;;;;5134765;27;20027;-15
2022/09/16 08:41:19;;;;;;;8.98;2.67;;;27.40;56.90;;;;;;5134124;27;20027;-15
2022/09/16 08:44:17;;;;;;;8.00;2.60;;;27.40;57.00;;;;;;5134746;27;20118;-15
2022/09/16 08:47:05;;;;;;;8.02;2.60;;;27.40;54.90;;;;;;5134195;27;20170;-15
2022/09/16 08:49:45;;;;;;;6.72;2.33;;;27.40;56.80;;;;;;5134253;27;20020;-14
2022/09/16 08:52:15;;;;;;;8.10;2.90;;;27.70;57.10;;;;;;5134195;27;20474;-14
2022/09/16 08:54:45;;;;;;;11.43;2.60;;;27.90;55.30;;;;;;5134322;27;20027;-14
2022/09/16 08:57:18;;;;;;;7.43;2.47;;;28.00;55.90;;;;;;5134124;27;20486;-14
2022/09/16 08:59:52;;;;;;;8.68;2.65;;;28.20;56.00;;;;;;5134430;27;20035;-14
2022/09/16 09:02:34;;;;;;;9.18;2.75;;;28.20;55.30;;;;;;5134026;27;20455;-14
2022/09/16 09:05:02;;;;;;;7.57;2.45;;;28.20;53.60;;;;;;5192251;22;20046;-15
2022/09/16 09:08:06;;;;;;;6.57;2.65;;;28.20;54.60;;;;;;5093261;28;20084;-19
2022/09/16 09:10:56;;;;;;;9.07;2.53;;;27.90;54.30;;;;;;5093202;28;20059;-18
2022/09/16 09:13:43;;;;;;;6.95;2.83;;;27.90;55.30;;;;;;5093515;28;20548;-17
2022/09/16 09:16:29;;;;;;;9.73;2.50;;;28.00;56.10;;;;;;5093184;28;20467;-17
2022/09/16 09:19:10;;;;;;;9.25;2.55;;;28.20;55.80;;;;;;5092870;28;20483;-17
2022/09/16 09:21:45;;;;;;;10.38;2.70;;;28.40;55.10;;;;;;5092961;28;20036;-16
2022/09/16 09:24:40;;;;;;;7.55;2.50;;;28.40;55.30;;;;;;5093402;28;20058;-18
2022/09/16 09:27:20;;;;;;;8.10;2.72;;;28.60;52.60;;;;;;5093119;28;20059;-17
2022/09/16 09:30:08;;;;;;;10.30;3.22;;;28.70;53.60;;;;;;5093009;28;20039;-16
2022/09/16 09:32:47;;;;;;;8.38;2.80;;;28.80;54.10;;;;;;5093342;28;20427;-16
2022/09/16 09:35:26;;;;;;;11.93;2.85;;;28.80;54.20;;;;;;5092894;28;20080;-16
2022/09/16 09:38:48;;;;;;;9.30;2.60;;;28.70;53.50;;;;;;5092903;28;20055;-17
2022/09/16 09:41:36;;;;;;;12.00;2.70;;;28.80;52.50;;;;;;5011065;28;20044;-16
2022/09/16 09:44:35;;;;;;;8.43;2.60;;;28.90;53.50;;;;;;5010473;28;20102;-16
2022/09/16 09:47:11;;;;;;;6.95;2.65;;;28.80;53.50;;;;;;5010720;28;20045;-16
2022/09/16 09:49:40;;;;;;;5.45;2.70;;;28.80;54.00;;;;;;5010874;28;20435;-16
2022/09/16 09:52:11;;;;;;;6.35;2.78;;;28.60;54.00;;;;;;5011169;28;20034;-16
2022/09/16 09:54:38;;;;;;;7.72;2.95;;;28.60;54.10;;;;;;5010912;28;20617;-18
2022/09/16 09:57:29;;;;;;;7.75;2.90;;;28.90;54.40;;;;;;5010664;28;20030;-17
2022/09/16 10:00:01;;;;;;;8.07;2.88;;;29.00;54.20;;;;;;5010923;28;20042;-16
2022/09/16 10:02:27;;;;;;;11.82;3.30;;;29.30;54.30;;;;;;5011182;28;20504;-16
2022/09/16 10:04:53;;;;;;;8.40;2.92;;;29.60;52.70;;;;;;5013793;28;20058;-16
2022/09/16 10:07:23;;;;;;;9.77;2.47;;;29.80;52.90;;;;;;5014387;28;20030;-17
2022/09/16 10:10:03;;;;;;;7.55;2.80;;;29.90;52.70;;;;;;5014402;28;20056;-17
2022/09/16 10:12:35;;;;;;;6.30;2.97;;;30.10;51.80;;;;;;5082430;28;20102;-19
2022/09/16 10:15:02;;;;;;;8.27;2.80;;;30.20;50.50;;;;;;5096019;28;20555;-18
2022/09/16 10:17:31;;;;;;;11.38;3.08;;;30.20;50.70;;;;;;5096211;28;20032;-18
2022/09/16 10:20:05;;;;;;;6.35;2.42;;;30.20;51.00;;;;;;5096393;28;20032;-17
2022/09/16 10:22:33;;;;;;;5.57;2.47;;;30.40;51.20;;;;;;5096472;28;20020;-18
2022/09/16 10:25:17;;;;;;;7.70;3.00;;;30.50;50.00;;;;;;5095956;28;20103;-17
2022/09/16 10:28:00;;;;;;;6.18;2.33;;;30.30;50.50;;;;;;5096296;28;20483;-16
2022/09/16 10:30:28;;;;;;;5.65;2.33;;;30.40;50.60;;;;;;5096368;28;20028;-17
2022/09/16 10:33:11;;;;;;;5.05;2.50;;;30.30;50.30;;;;;;5244446;22;20060;-14
2022/09/16 10:35:40;;;;;;;10.75;3.00;;;30.30;49.30;;;;;;5095907;28;20020;-14
2022/09/16 10:38:17;;;;;;;7.05;2.60;;;30.10;50.20;;;;;;5095820;28;20024;-14
2022/09/16 10:41:03;;;;;;;6.30;2.50;;;30.00;51.40;;;;;;5185958;22;20052;-16
2022/09/16 10:43:30;;;;;;;5.93;2.50;;;30.30;50.30;;;;;;5116165;28;20049;-14
2022/09/16 10:45:57;;;;;;;7.03;2.70;;;30.50;50.50;;;;;;5201211;22;20047;-15
2022/09/16 10:48:30;;;;;;;6.20;2.47;;;30.40;48.90;;;;;;5116067;28;20058;-15
2022/09/16 10:51:03;;;;;;;5.25;2.72;;;30.60;49.30;;;;;;5097645;28;20032;-14
2022/09/16 10:53:38;;;;;;;8.63;2.45;;;30.90;49.40;;;;;;5115946;28;20020;-15
2022/09/16 10:56:15;;;;;;;6.10;2.00;;;31.30;47.40;;;;;;5116220;28;20023;-14
2022/09/16 10:58:41;;;;;;;9.18;2.33;;;31.30;47.70;;;;;;5116083;28;20080;-14
2022/09/16 11:01:37;;;;;;;8.15;2.42;;;31.30;48.00;;;;;;5115738;28;20425;-15
2022/09/16 11:04:07;;;;;;;8.98;2.50;;;31.30;46.60;;;;;;5116108;28;20024;-13
2022/09/16 11:06:32;;;;;;;3.92;1.92;;;31.20;47.70;;;;;;5251899;22;20051;-16
2022/09/16 11:09:34;;;;;;;6.50;2.47;;;31.00;48.10;;;;;;5095343;28;20028;-15
2022/09/16 11:12:06;;;;;;;7.80;2.50;;;31.20;47.40;;;;;;5013490;28;20033;-16
2022/09/16 11:14:49;;;;;;;7.10;2.78;;;31.40;47.70;;;;;;5013251;28;20061;-17
2022/09/16 11:17:24;;;;;;;12.02;2.67;;;31.70;45.80;;;;;;5013143;28;20481;-16
2022/09/16 11:20:09;;;;;;;5.18;2.17;;;31.60;47.00;;;;;;5013063;28;20046;-16
2022/09/16 11:22:58;;;;;;;4.90;2.15;;;31.70;46.70;;;;;;5013225;28;20045;-17
2022/09/16 11:25:33;;;;;;;5.43;2.35;;;31.90;47.30;;;;;;5008170;28;20428;-16
2022/09/16 11:28:22;;;;;;;8.20;2.53;;;31.90;46.60;;;;;;5138308;22;20052;-14
2022/09/16 11:31:23;;;;;;;6.88;2.30;;;32.40;45.00;;;;;;5094757;28;20077;-17
2022/09/16 11:34:00;;;;;;;8.48;2.53;;;33.00;45.10;;;;;;5091229;28;20038;-13
2022/09/16 11:36:32;;;;;;;10.85;2.70;;;33.40;43.90;;;;;;5198902;22;20108;-14
2022/09/16 11:39:39;;;;;;;7.40;2.67;;;33.10;43.60;;;;;;5135455;27;20025;-15
2022/09/16 11:42:13;;;;;;;5.85;2.55;;;33.50;42.90;;;;;;5052641;28;20052;-14
2022/09/16 11:44:49;;;;;;;9.70;2.80;;;33.40;43.70;;;;;;5052391;28;20033;-14
2022/09/16 11:47:24;;;;;;;4.93;2.70;;;33.60;43.50;;;;;;5052488;28;20036;-14
2022/09/16 11:50:17;;;;;;;10.90;2.70;;;33.70;43.70;;;;;;5052199;28;20491;-14
2022/09/16 11:53:04;;;;;;;7.50;2.47;;;33.50;44.00;;;;;;5052242;28;20527;-14
2022/09/16 11:55:39;;;;;;;6.03;2.40;;;33.70;43.60;;;;;;5052037;28;20075;-14
2022/09/16 11:58:34;;;;;;;7.72;2.60;;;33.80;42.40;;;;;;5052014;28;20116;-14
2022/09/16 12:01:10;;;;;;;10.98;2.78;;;34.00;41.90;;;;;;5051715;28;20033;-15
2022/09/16 12:03:51;;;;;;;7.53;3.10;;;34.40;43.40;;;;;;5051903;28;20063;-14
2022/09/16 12:09:02;;;;;;;8.90;2.85;;;34.90;42.00;;;;;;5109520;28;20054;-14
2022/09/16 12:11:50;;;;;;;4.75;2.25;;;35.30;40.40;;;;;;5114430;28;20034;-15
2022/09/16 12:14:32;;;;;;;7.28;2.50;;;35.60;41.00;;;;;;5114761;28;20020;-15
2022/09/16 12:17:04;;;;;;;5.87;2.40;;;36.00;40.30;;;;;;5114200;28;20030;-14
2022/09/16 12:19:48;;;;;;;6.00;2.65;;;36.00;39.80;;;;;;5114357;28;20032;-16
2022/09/16 12:22:32;;;;;;;6.28;2.53;;;35.90;40.30;;;;;;5114478;28;20416;-14
2022/09/16 12:26:00;;;;;;;8.05;2.50;;;36.20;39.50;;;;;;5113809;28;20027;-14
2022/09/16 12:28:36;;;;;;;5.88;2.30;;;36.40;38.30;;;;;;5051748;28;20033;-14
2022/09/16 12:31:18;;;;;;;7.82;2.72;;;36.20;39.70;;;;;;5051264;28;20033;-14
2022/09/16 12:34:13;;;;;;;9.07;2.33;;;36.10;39.10;;;;;;5051718;28;20017;-14
2022/09/16 12:36:44;;;;;;;10.35;2.90;;;35.90;39.40;;;;;;5045839;28;20033;-15
2022/09/16 12:39:11;;;;;;;11.50;2.85;;;35.90;39.80;;;;;;5051114;28;20104;-15
2022/09/16 12:42:02;;;;;;;7.43;2.53;;;35.80;40.00;;;;;;5051622;28;20032;-15
2022/09/16 12:45:05;;;;;;;9.82;2.90;;;35.60;40.60;;;;;;5051468;28;20025;-15
2022/09/16 12:47:45;;;;;;;9.77;3.40;;;35.80;39.70;;;;;;5051555;28;20586;-16
2022/09/16 12:50:17;;;;;;;6.45;2.35;;;36.00;39.50;;;;;;5051432;28;20021;-15
2022/09/16 12:52:48;;;;;;;9.93;3.22;;;35.90;40.40;;;;;;5051056;28;20037;-15
2022/09/16 12:55:29;;;;;;;6.95;2.83;;;35.90;39.80;;;;;;5051097;28;20500;-15
2022/09/16 12:58:11;;;;;;;5.32;2.45;;;35.90;38.70;;;;;;5054239;28;20057;-14
2022/09/16 13:01:02;;;;;;;8.10;2.97;;;35.90;40.00;;;;;;5113717;28;20039;-15
2022/09/16 13:03:32;;;;;;;6.82;2.83;;;35.80;39.90;;;;;;5112866;28;20043;-16
2022/09/16 13:06:13;;;;;;;8.40;3.00;;;35.90;39.90;;;;;;5114311;28;20039;-15
2022/09/16 13:08:39;;;;;;;5.53;2.58;;;35.40;40.30;;;;;;5113254;28;20480;-15
2022/09/16 13:11:14;;;;;;;9.25;3.47;;;35.40;41.00;;;;;;5113716;28;20031;-15
2022/09/16 13:13:47;;;;;;;6.63;3.10;;;35.10;40.40;;;;;;5114087;28;20019;-15
2022/09/16 13:16:12;;;;;;;;;;;34.60;41.70;;;;;;5113952;28;20102;-14
2022/09/16 13:18:40;;;;;;;7.18;3.00;;;34.10;42.70;;;;;;5113406;28;19999;-15
2022/09/16 13:21:23;;;;;;;10.00;3.70;;;33.40;43.50;;;;;;5113141;28;20118;-15
2022/09/16 13:24:13;;;;;;;8.00;2.90;;;33.00;43.30;;;;;;5113497;28;20034;-15